createdAt,value
2023-05-04T00:01:28.653Z,101683.97
2023-05-04T00:03:55.365Z,101689.59
2023-05-04T00:06:22.087Z,101688.06
2023-05-04T00:08:48.580Z,101683.19
2023-05-04T00:11:15.291Z,101680.69
2023-05-04T00:13:41.697Z,101674.84
2023-05-04T00:16:10.620Z,101673.59
2023-05-04T00:18:37.625Z,101674.47
2023-05-04T00:21:04.123Z,101676.56
2023-05-04T00:23:30.762Z,101672.84
2023-05-04T00:25:59.542Z,101669.22
2023-05-04T00:28:26.038Z,101671.72
2023-05-04T00:30:56.208Z,101685.31
2023-05-04T00:33:22.865Z,101669.66
2023-05-04T00:35:49.296Z,101676.66
2023-05-04T00:38:16.869Z,101672.38
2023-05-04T00:40:43.409Z,101672.91
2023-05-04T00:43:09.966Z,101674.72
2023-05-04T00:45:36.663Z,101673.22
2023-05-04T00:48:03.853Z,101675.88
2023-05-04T00:50:30.515Z,101671.00
2023-05-04T00:52:59.787Z,101668.78
2023-05-04T00:55:26.613Z,101665.00
2023-05-04T00:57:53.457Z,101638.78
2023-05-04T01:00:20.477Z,101636.53
2023-05-04T01:02:49.364Z,101650.03
2023-05-04T01:05:16.077Z,101642.00
2023-05-04T01:08:04.028Z,101645.34
2023-05-04T01:10:37.368Z,101640.44
2023-05-04T01:13:13.705Z,101638.47
2023-05-04T01:15:40.286Z,101634.88
2023-05-04T01:18:07.723Z,101631.50
2023-05-04T01:20:34.533Z,101629.25
2023-05-04T01:23:01.544Z,101627.44
2023-05-04T01:25:34.486Z,101623.13
2023-05-04T01:28:10.090Z,101612.50
2023-05-04T01:30:40.765Z,101592.69
2023-05-04T01:33:10.107Z,101605.34
2023-05-04T01:35:37.263Z,101608.16
2023-05-04T01:38:03.928Z,101603.84
2023-05-04T01:40:30.380Z,101606.81
2023-05-04T01:42:57.085Z,101609.47
2023-05-04T01:45:23.869Z,101610.72
2023-05-04T01:47:50.580Z,101607.09
2023-05-04T01:50:17.208Z,101614.78
2023-05-04T01:52:43.997Z,101597.75
2023-05-04T01:55:10.455Z,101604.16
2023-05-04T01:57:37.047Z,101611.03
2023-05-04T02:00:04.159Z,101613.00
2023-05-04T02:02:31.654Z,101607.00
2023-05-04T02:04:58.258Z,101611.63
2023-05-04T02:07:24.717Z,101605.63
2023-05-04T02:09:51.494Z,101596.81
2023-05-04T02:12:17.956Z,101589.00
2023-05-04T02:14:44.390Z,101599.19
2023-05-04T02:17:11.610Z,101596.66
2023-05-04T02:19:38.122Z,101591.97
2023-05-04T02:22:04.538Z,101590.28
2023-05-04T02:24:30.994Z,101585.13
2023-05-04T02:26:57.446Z,101580.50
2023-05-04T02:29:24.026Z,101573.41
2023-05-04T02:31:50.563Z,101573.97
2023-05-04T02:34:17.071Z,101571.59
2023-05-04T02:36:43.466Z,101571.91
2023-05-04T02:39:09.940Z,101560.59
2023-05-04T02:41:36.437Z,101563.34
2023-05-04T02:44:02.881Z,101561.97
2023-05-04T02:46:31.150Z,101563.78
2023-05-04T02:48:57.662Z,101565.75
2023-05-04T02:51:24.158Z,101559.22
2023-05-04T02:53:50.693Z,101554.66
2023-05-04T02:56:17.116Z,101555.50
2023-05-04T02:58:43.559Z,101560.94
2023-05-04T03:01:10.032Z,101562.22
2023-05-04T03:03:36.569Z,101565.16
2023-05-04T03:06:03.174Z,101575.34
2023-05-04T03:08:30.223Z,101568.94
2023-05-04T03:10:56.779Z,101579.56
2023-05-04T03:13:23.486Z,101579.00
2023-05-04T03:15:50.077Z,101566.03
2023-05-04T03:18:16.666Z,101573.16
2023-05-04T03:20:43.252Z,101563.53
2023-05-04T03:23:09.780Z,101569.53
2023-05-04T03:25:36.868Z,101564.78
2023-05-04T03:28:04.603Z,101567.28
2023-05-04T03:30:31.067Z,101558.78
2023-05-04T03:32:57.488Z,101554.63
2023-05-04T03:35:25.235Z,101553.22
2023-05-04T03:37:51.899Z,101546.78
2023-05-04T03:40:22.855Z,101542.75
2023-05-04T03:42:50.044Z,101549.47
2023-05-04T03:45:16.545Z,101545.13
2023-05-04T03:47:43.019Z,101541.66
2023-05-04T03:50:10.606Z,101551.28
2023-05-04T03:52:37.201Z,101550.88
2023-05-04T03:55:03.847Z,101536.53
2023-05-04T03:57:30.257Z,101530.00
2023-05-04T03:59:57.820Z,101527.63
2023-05-04T04:02:24.642Z,101530.25
2023-05-04T04:04:51.163Z,101532.91
2023-05-04T04:07:17.638Z,101532.25
2023-05-04T04:09:44.024Z,101534.34
2023-05-04T04:12:10.526Z,101522.50
2023-05-04T04:14:36.908Z,101518.16
2023-05-04T04:17:04.387Z,101517.50
2023-05-04T04:19:30.827Z,101514.53
2023-05-04T04:21:59.922Z,101515.25
2023-05-04T04:24:26.521Z,101513.84
2023-05-04T04:26:53.282Z,101514.25
2023-05-04T04:29:19.747Z,101503.66
2023-05-04T04:31:46.552Z,101503.38
2023-05-04T04:34:13.070Z,101507.44
2023-05-04T04:36:40.263Z,101511.03
2023-05-04T04:39:06.765Z,101507.00
2023-05-04T04:41:33.222Z,101494.84
2023-05-04T04:44:01.232Z,101507.94
2023-05-04T04:46:28.015Z,101505.00
2023-05-04T04:48:55.765Z,101504.84
2023-05-04T04:51:22.312Z,101506.25
2023-05-04T04:53:48.782Z,101506.81
2023-05-04T04:56:18.432Z,101499.00
2023-05-04T04:58:46.173Z,101502.50
2023-05-04T05:01:17.690Z,101503.75
2023-05-04T05:03:47.525Z,101497.88
2023-05-04T05:06:14.220Z,101495.19
2023-05-04T05:08:41.796Z,101505.94
2023-05-04T05:11:08.381Z,101503.97
2023-05-04T05:13:35.985Z,101500.59
2023-05-04T05:16:02.482Z,101497.53
2023-05-04T05:18:29.430Z,101501.88
2023-05-04T05:20:56.678Z,101502.28
2023-05-04T05:23:23.382Z,101493.47
2023-05-04T05:25:49.940Z,101493.88
2023-05-04T05:28:16.387Z,101492.16
2023-05-04T05:30:42.970Z,101502.69
2023-05-04T05:33:10.231Z,101497.38
2023-05-04T05:35:37.601Z,101491.81
2023-05-04T05:38:03.993Z,101487.84
2023-05-04T05:40:30.512Z,101474.50
2023-05-04T05:42:57.044Z,101486.28
2023-05-04T05:45:23.594Z,101487.94
2023-05-04T05:47:51.212Z,101483.00
2023-05-04T05:50:20.559Z,101488.03
2023-05-04T05:52:48.178Z,101485.22
2023-05-04T05:55:14.717Z,101489.69
2023-05-04T05:57:41.443Z,101488.84
2023-05-04T06:00:09.027Z,101482.81
2023-05-04T06:02:35.597Z,101486.53
2023-05-04T06:05:02.537Z,101467.47
2023-05-04T06:07:29.048Z,101484.81
2023-05-04T06:09:56.531Z,101476.06
2023-05-04T06:12:23.367Z,101472.63
2023-05-04T06:14:49.785Z,101459.88
2023-05-04T06:17:17.469Z,101469.75
2023-05-04T06:19:44.937Z,101467.44
2023-05-04T06:22:11.552Z,101463.91
2023-05-04T06:24:37.995Z,101459.31
2023-05-04T06:27:04.668Z,101458.47
2023-05-04T06:29:31.409Z,101460.34
2023-05-04T06:31:58.964Z,101453.03
2023-05-04T06:34:26.568Z,101456.84
2023-05-04T06:36:53.019Z,101452.22
2023-05-04T06:39:19.723Z,101451.75
2023-05-04T06:41:46.239Z,101451.34
2023-05-04T06:44:12.852Z,101441.56
2023-05-04T06:46:39.447Z,101439.75
2023-05-04T06:49:06.097Z,101444.25
2023-05-04T06:51:32.767Z,101436.84
2023-05-04T06:54:01.072Z,101438.81
2023-05-04T06:56:27.536Z,101437.34
2023-05-04T06:58:54.001Z,101436.69
2023-05-04T07:01:20.840Z,101445.50
2023-05-04T07:03:48.112Z,101434.69
2023-05-04T07:06:14.629Z,101434.84
2023-05-04T07:08:42.724Z,101424.22
2023-05-04T07:11:10.359Z,101429.53
2023-05-04T07:13:38.641Z,101423.03
2023-05-04T07:16:08.048Z,101413.53
2023-05-04T07:18:34.657Z,101419.84
2023-05-04T07:21:21.966Z,101416.03
2023-05-04T07:23:52.020Z,101410.69
2023-05-04T07:26:18.752Z,101412.16
2023-05-04T07:28:45.418Z,101405.81
2023-05-04T07:31:13.067Z,101407.31
2023-05-04T07:33:39.812Z,101407.31
2023-05-04T07:36:06.941Z,101405.75
2023-05-04T07:38:33.890Z,101406.91
2023-05-04T07:41:00.630Z,101396.22
2023-05-04T07:43:27.093Z,101383.66
2023-05-04T07:45:53.942Z,101383.78
2023-05-04T07:48:20.713Z,101392.09
2023-05-04T07:50:47.729Z,101374.50
2023-05-04T07:53:14.210Z,101382.25
2023-05-04T07:55:40.829Z,101363.19
2023-05-04T07:58:07.330Z,101365.66
2023-05-04T08:00:33.824Z,101364.38
2023-05-04T08:03:00.406Z,101360.66
2023-05-04T08:05:27.069Z,101353.03
2023-05-04T08:07:53.480Z,101348.25
2023-05-04T08:10:20.686Z,101348.72
2023-05-04T08:12:47.157Z,101342.63
2023-05-04T08:15:14.726Z,101342.75
2023-05-04T08:17:41.346Z,101341.63
2023-05-04T08:20:08.435Z,101335.72
2023-05-04T08:22:35.219Z,101349.75
2023-05-04T08:25:01.964Z,101342.00
2023-05-04T08:27:28.471Z,101343.78
2023-05-04T08:29:57.353Z,101310.94
2023-05-04T08:32:23.819Z,101347.09
2023-05-04T08:34:51.830Z,101343.03
2023-05-04T08:37:20.130Z,101336.66
2023-05-04T08:39:46.628Z,101338.78
2023-05-04T08:42:13.194Z,101338.47
2023-05-04T08:44:40.330Z,101335.19
2023-05-04T08:47:08.181Z,101328.06
2023-05-04T08:49:35.621Z,101321.16
2023-05-04T08:52:07.360Z,101308.06
2023-05-04T08:54:36.036Z,101318.16
2023-05-04T08:57:04.764Z,101305.16
2023-05-04T08:59:32.530Z,101312.75
2023-05-04T09:02:00.665Z,101307.63
2023-05-04T09:04:29.260Z,101305.69
2023-05-04T09:06:56.944Z,101306.13
2023-05-04T09:09:27.709Z,101304.13
2023-05-04T09:11:54.174Z,101299.03
2023-05-04T09:14:22.623Z,101290.25
2023-05-04T09:16:49.230Z,101300.81
2023-05-04T09:19:20.230Z,101286.63
2023-05-04T09:21:48.059Z,101287.25
2023-05-04T09:24:24.892Z,101279.81
2023-05-04T09:26:51.863Z,101278.38
2023-05-04T09:29:18.356Z,101272.56
2023-05-04T09:31:49.663Z,101271.34
2023-05-04T09:34:17.073Z,101275.28
2023-05-04T09:36:43.851Z,101270.97
2023-05-04T09:39:14.324Z,101270.75
2023-05-04T09:41:42.159Z,101266.38
2023-05-04T09:44:19.800Z,101270.13
2023-05-04T09:46:56.708Z,101251.94
2023-05-04T09:49:49.628Z,101253.19
2023-05-04T09:52:16.334Z,101253.16
2023-05-04T09:54:45.245Z,101256.91
2023-05-04T09:57:15.704Z,101249.25
2023-05-04T09:59:42.465Z,101261.00
2023-05-04T10:02:21.830Z,101248.97
2023-05-04T10:04:51.627Z,101239.59
2023-05-04T10:07:19.284Z,101242.50
2023-05-04T10:09:48.582Z,101223.75
2023-05-04T10:12:15.062Z,101226.22
2023-05-04T10:14:42.946Z,101214.03
2023-05-04T10:17:24.570Z,101219.53
2023-05-04T10:20:22.898Z,101211.41
2023-05-04T10:23:08.589Z,101203.47
2023-05-04T10:25:47.382Z,101200.34
2023-05-04T10:28:41.265Z,101188.34
2023-05-04T10:31:08.371Z,101181.34
2023-05-04T10:33:41.569Z,101187.50
2023-05-04T10:36:09.011Z,101174.03
2023-05-04T10:38:36.508Z,101181.91
2023-05-04T10:41:19.637Z,101174.63
2023-05-04T10:43:51.205Z,101169.41
2023-05-04T10:46:22.688Z,101159.50
2023-05-04T10:48:50.415Z,101165.22
2023-05-04T10:51:26.553Z,101165.75
2023-05-04T10:53:57.420Z,101143.50
2023-05-04T10:56:25.826Z,101146.53
2023-05-04T10:58:52.906Z,101137.16
2023-05-04T11:01:21.469Z,101131.19
2023-05-04T11:03:52.411Z,101115.53
2023-05-04T11:06:27.639Z,101130.84
2023-05-04T11:09:03.066Z,101107.03
2023-05-04T11:11:29.552Z,101122.47
2023-05-04T11:13:57.021Z,101111.56
2023-05-04T11:16:24.562Z,101115.88
2023-05-04T11:18:51.323Z,101114.59
2023-05-04T11:21:25.358Z,101104.78
2023-05-04T11:23:58.764Z,101105.75
2023-05-04T11:26:26.116Z,101097.25
2023-05-04T11:28:52.718Z,101101.41
2023-05-04T11:31:20.939Z,101100.97
2023-05-04T11:33:49.131Z,101088.88
2023-05-04T11:36:16.575Z,101085.00
2023-05-04T11:38:43.804Z,101085.56
2023-05-04T11:41:12.620Z,101088.75
2023-05-04T11:43:42.269Z,101070.91
2023-05-04T11:46:09.394Z,101078.84
2023-05-04T11:48:36.172Z,101069.69
2023-05-04T11:51:04.475Z,101062.88
2023-05-04T11:53:38.648Z,101060.28
2023-05-04T11:56:06.599Z,101049.25
2023-05-04T11:58:34.582Z,101058.31
2023-05-04T12:01:01.266Z,101053.25
2023-05-04T12:03:51.157Z,101051.47
2023-05-04T12:06:19.802Z,101040.69
2023-05-04T12:08:46.317Z,101030.81
2023-05-04T12:11:26.261Z,101035.50
2023-05-04T12:14:07.042Z,101021.63
2023-05-04T12:16:33.925Z,101019.28
2023-05-04T12:19:08.224Z,101020.06
2023-05-04T12:21:36.019Z,101017.03
2023-05-04T12:24:03.657Z,101002.03
2023-05-04T12:26:30.561Z,101007.84
2023-05-04T12:28:57.206Z,100999.88
2023-05-04T12:31:25.332Z,100999.88
2023-05-04T12:33:52.178Z,100992.44
2023-05-04T12:36:18.895Z,100989.69
2023-05-04T12:38:46.049Z,100994.63
2023-05-04T12:41:12.659Z,100993.06
2023-05-04T12:43:39.403Z,100978.78
2023-05-04T12:46:06.517Z,100967.97
2023-05-04T12:48:33.233Z,100974.75
2023-05-04T12:51:00.763Z,100957.41
2023-05-04T12:53:30.043Z,100951.28
2023-05-04T12:55:57.255Z,100938.69
2023-05-04T12:58:23.845Z,100952.88
2023-05-04T13:00:50.730Z,100945.91
2023-05-04T13:03:18.130Z,100949.59
2023-05-04T13:05:49.671Z,100940.25
2023-05-04T13:08:18.277Z,100923.00
2023-05-04T13:10:46.206Z,100933.53
2023-05-04T13:13:15.216Z,100926.56
2023-05-04T13:15:42.615Z,100921.31
2023-05-04T13:18:09.122Z,100913.94
2023-05-04T13:20:35.653Z,100909.16
2023-05-04T13:23:04.370Z,100911.72
2023-05-04T13:25:30.852Z,100911.16
2023-05-04T13:27:59.031Z,100903.16
2023-05-04T13:30:26.666Z,100890.78
2023-05-04T13:32:53.326Z,100893.47
2023-05-04T13:35:19.871Z,100887.06
2023-05-04T13:37:46.543Z,100879.72
2023-05-04T13:40:13.810Z,100887.31
2023-05-04T13:42:40.307Z,100881.50
2023-05-04T13:45:07.770Z,100870.50
2023-05-04T13:47:36.969Z,100851.47
2023-05-04T13:50:04.093Z,100859.59
2023-05-04T13:52:32.073Z,100848.25
2023-05-04T13:54:59.071Z,100864.63
2023-05-04T13:57:27.737Z,100857.25
2023-05-04T14:00:05.731Z,100845.72
2023-05-04T14:02:34.061Z,100849.84
2023-05-04T14:05:01.485Z,100852.69
2023-05-04T14:07:27.962Z,100842.94
2023-05-04T14:09:56.036Z,100830.72
2023-05-04T14:12:22.800Z,100833.25
2023-05-04T14:14:50.683Z,100822.47
2023-05-04T14:17:17.539Z,100830.56
2023-05-04T14:19:44.735Z,100821.38
2023-05-04T14:22:11.358Z,100816.25
2023-05-04T14:24:37.842Z,100809.75
2023-05-04T14:27:04.382Z,100813.97
2023-05-04T14:29:32.304Z,100806.19
2023-05-04T14:31:59.008Z,100804.97
2023-05-04T14:34:28.795Z,100806.19
2023-05-04T14:36:55.451Z,100806.31
2023-05-04T14:39:22.532Z,100805.75
2023-05-04T14:41:48.972Z,100797.75
2023-05-04T14:44:15.388Z,100800.69
2023-05-04T14:46:41.862Z,100794.13
2023-05-04T14:49:08.361Z,100803.50
2023-05-04T14:51:35.585Z,100802.84
2023-05-04T14:54:02.173Z,100785.56
2023-05-04T14:56:28.728Z,100788.91
2023-05-04T14:58:57.235Z,100796.50
2023-05-04T15:01:27.212Z,100790.69
2023-05-04T15:03:53.843Z,100792.19
2023-05-04T15:06:20.415Z,100788.28
2023-05-04T15:08:47.038Z,100783.81
2023-05-04T15:11:13.696Z,100782.72
2023-05-04T15:13:40.201Z,100783.47
2023-05-04T15:16:06.855Z,100776.72
2023-05-04T15:18:33.560Z,100773.53
2023-05-04T15:21:00.012Z,100763.22
2023-05-04T15:23:26.562Z,100767.81
2023-05-04T15:25:53.062Z,100763.59
2023-05-04T15:28:22.770Z,100761.13
2023-05-04T15:30:49.289Z,100753.28
2023-05-04T15:33:15.775Z,100761.75
2023-05-04T15:35:43.063Z,100752.44
2023-05-04T15:38:09.501Z,100740.88
2023-05-04T15:40:36.416Z,100740.69
2023-05-04T15:43:03.715Z,100741.81
2023-05-04T15:45:30.188Z,100737.06
2023-05-04T15:47:59.442Z,100730.69
2023-05-04T15:50:26.235Z,100736.13
2023-05-04T15:52:52.843Z,100732.59
2023-05-04T15:55:25.804Z,100735.88
2023-05-04T15:57:53.939Z,100728.88
2023-05-04T16:00:22.908Z,100734.41
2023-05-04T16:02:49.467Z,100731.00
2023-05-04T16:05:16.099Z,100721.06
2023-05-04T16:07:42.577Z,100730.78
2023-05-04T16:10:10.017Z,100709.06
2023-05-04T16:12:37.108Z,100706.00
2023-05-04T16:15:04.020Z,100707.22
2023-05-04T16:17:34.932Z,100723.47
2023-05-04T16:20:02.537Z,100720.56
2023-05-04T16:22:29.313Z,100711.44
2023-05-04T16:24:56.074Z,100712.31
2023-05-04T16:27:24.145Z,100715.41
2023-05-04T16:29:51.370Z,100704.50
2023-05-04T16:32:17.812Z,100700.66
2023-05-04T16:34:44.376Z,100701.13
2023-05-04T16:37:12.236Z,100688.88
2023-05-04T16:39:38.722Z,100699.19
2023-05-04T16:42:06.520Z,100703.56
2023-05-04T16:44:35.118Z,100698.63
2023-05-04T16:47:01.616Z,100700.25
2023-05-04T16:49:29.262Z,100702.44
2023-05-04T16:51:55.766Z,100700.59
2023-05-04T16:54:24.144Z,100694.34
2023-05-04T16:56:51.238Z,100694.16
2023-05-04T16:59:17.769Z,100698.44
2023-05-04T17:01:44.401Z,100699.81
2023-05-04T17:04:11.236Z,100710.38
2023-05-04T17:06:38.262Z,100702.28
2023-05-04T17:09:05.488Z,100698.78
2023-05-04T17:11:32.012Z,100704.13
2023-05-04T17:13:59.062Z,100704.84
2023-05-04T17:16:25.708Z,100705.56
2023-05-04T17:18:52.170Z,100708.28
2023-05-04T17:21:18.677Z,100706.13
2023-05-04T17:23:45.209Z,100677.16
2023-05-04T17:26:11.631Z,100703.13
2023-05-04T17:28:39.226Z,100716.25
2023-05-04T17:31:05.736Z,100719.59
2023-05-04T17:33:32.220Z,100708.22
2023-05-04T17:35:58.763Z,100712.03
2023-05-04T17:38:25.395Z,100701.63
2023-05-04T17:40:51.833Z,100703.22
2023-05-04T17:43:18.429Z,100704.38
2023-05-04T17:45:44.924Z,100704.53
2023-05-04T17:48:11.438Z,100700.16
2023-05-04T17:50:38.816Z,100714.75
2023-05-04T17:53:05.226Z,100707.47
2023-05-04T17:55:31.729Z,100713.66
2023-05-04T17:57:58.440Z,100702.97
2023-05-04T18:00:25.214Z,100713.84
2023-05-04T18:02:51.730Z,100713.34
2023-05-04T18:05:18.301Z,100713.06
2023-05-04T18:07:44.773Z,100711.00
2023-05-04T18:10:11.365Z,100708.81
2023-05-04T18:12:38.491Z,100710.94
2023-05-04T18:15:08.407Z,100710.31
2023-05-04T18:17:37.776Z,100713.84
2023-05-04T18:20:06.859Z,100721.91
2023-05-04T18:22:34.206Z,100718.16
2023-05-04T18:25:01.067Z,100722.00
2023-05-04T18:27:33.358Z,100723.31
2023-05-04T18:30:05.112Z,100720.75
2023-05-04T18:32:31.988Z,100724.09
2023-05-04T18:34:58.748Z,100728.03
2023-05-04T18:37:25.814Z,100721.75
2023-05-04T18:39:52.550Z,100727.84
2023-05-04T18:42:19.013Z,100729.31
2023-05-04T18:44:45.961Z,100727.31
2023-05-04T18:47:12.817Z,100724.53
2023-05-04T18:49:39.256Z,100722.84
2023-05-04T18:52:05.842Z,100728.88
2023-05-04T18:54:32.675Z,100722.09
2023-05-04T18:56:59.310Z,100713.34
2023-05-04T18:59:26.084Z,100717.94
2023-05-04T19:01:53.014Z,100709.09
2023-05-04T19:04:19.693Z,100722.03
2023-05-04T19:06:47.754Z,100721.69
2023-05-04T19:09:14.899Z,100727.34
2023-05-04T19:11:42.503Z,100727.00
2023-05-04T19:14:09.028Z,100717.50
2023-05-04T19:16:35.630Z,100721.50
2023-05-04T19:19:05.403Z,100721.44
2023-05-04T19:21:31.888Z,100718.72
2023-05-04T19:23:58.328Z,100715.94
2023-05-04T19:26:24.776Z,100723.81
2023-05-04T19:28:51.304Z,100721.91
2023-05-04T19:31:18.032Z,100718.56
2023-05-04T19:33:48.500Z,100727.28
2023-05-04T19:36:16.151Z,100723.53
2023-05-04T19:38:42.836Z,100721.28
2023-05-04T19:41:09.455Z,100730.97
2023-05-04T19:43:36.155Z,100726.06
2023-05-04T19:46:03.359Z,100723.47
2023-05-04T19:48:29.902Z,100727.75
2023-05-04T19:50:57.511Z,100727.66
2023-05-04T19:53:24.070Z,100730.50
2023-05-04T19:55:51.203Z,100729.81
2023-05-04T19:58:17.727Z,100726.44
2023-05-04T20:00:44.320Z,100722.00
2023-05-04T20:03:10.948Z,100731.72
2023-05-04T20:05:38.476Z,100724.13
2023-05-04T20:08:05.429Z,100729.16
2023-05-04T20:10:32.360Z,100731.03
2023-05-04T20:12:58.917Z,100725.06
2023-05-04T20:15:25.988Z,100732.09
2023-05-04T20:17:52.954Z,100730.09
2023-05-04T20:20:21.500Z,100728.22
2023-05-04T20:22:51.971Z,100730.81
2023-05-04T20:25:19.862Z,100723.56
2023-05-04T20:27:48.655Z,100724.47
2023-05-04T20:30:15.636Z,100726.38
2023-05-04T20:32:44.158Z,100729.50
2023-05-04T20:35:10.933Z,100728.94
2023-05-04T20:37:37.483Z,100722.63
2023-05-04T20:40:04.469Z,100717.72
2023-05-04T20:42:31.055Z,100719.22
2023-05-04T20:44:57.465Z,100722.41
2023-05-04T20:47:23.929Z,100718.06
2023-05-04T20:49:50.357Z,100708.56
2023-05-04T20:52:16.826Z,100701.56
2023-05-04T20:54:43.300Z,100707.03
2023-05-04T20:57:09.727Z,100700.84
2023-05-04T20:59:36.407Z,100700.97
2023-05-04T21:02:02.824Z,100699.56
2023-05-04T21:04:29.321Z,100703.31
2023-05-04T21:06:56.935Z,100694.06
2023-05-04T21:09:23.469Z,100694.53
2023-05-04T21:11:52.091Z,100699.34
2023-05-04T21:14:18.521Z,100693.59
2023-05-04T21:16:44.957Z,100691.13
2023-05-04T21:19:11.498Z,100691.13
2023-05-04T21:21:40.802Z,100695.13
2023-05-04T21:24:12.265Z,100688.31
2023-05-04T21:26:39.040Z,100695.81
2023-05-04T21:29:05.773Z,100685.97
2023-05-04T21:31:33.414Z,100692.63
2023-05-04T21:34:02.074Z,100691.25
2023-05-04T21:36:29.333Z,100693.34
2023-05-04T21:38:55.926Z,100687.59
2023-05-04T21:41:22.573Z,100680.47
2023-05-04T21:43:49.174Z,100688.19
2023-05-04T21:46:15.644Z,100683.72
2023-05-04T21:48:42.184Z,100676.09
2023-05-04T21:51:08.835Z,100673.28
2023-05-04T21:53:35.509Z,100681.59
2023-05-04T21:56:06.229Z,100674.78
2023-05-04T21:58:32.707Z,100676.91
2023-05-04T22:00:59.525Z,100683.31
2023-05-04T22:03:28.440Z,100729.97
2023-05-04T22:05:57.487Z,100737.34
2023-05-04T22:08:24.896Z,100704.34
2023-05-04T22:10:53.235Z,100690.09
2023-05-04T22:13:19.908Z,100737.94
2023-05-04T22:15:50.020Z,100711.00
2023-05-04T22:18:17.324Z,100703.69
2023-05-04T22:20:43.980Z,100724.69
2023-05-04T22:23:10.580Z,100725.41
2023-05-04T22:25:37.192Z,100711.22
2023-05-04T22:28:05.049Z,100713.78
2023-05-04T22:30:31.632Z,100719.47
2023-05-04T22:32:58.294Z,100711.13
2023-05-04T22:35:24.900Z,100710.63
2023-05-04T22:37:51.480Z,100725.69
2023-05-04T22:40:18.193Z,100728.59
2023-05-04T22:42:47.258Z,100737.03
2023-05-04T22:45:14.808Z,100728.66
2023-05-04T22:47:42.241Z,100734.63
2023-05-04T22:50:10.397Z,100739.19
2023-05-04T22:52:37.760Z,100736.94
2023-05-04T22:55:05.751Z,100727.44
2023-05-04T22:57:32.372Z,100723.69
2023-05-04T22:59:58.842Z,100725.03
2023-05-04T23:02:25.456Z,100711.06
2023-05-04T23:04:53.151Z,100724.13
2023-05-04T23:07:19.684Z,100731.47
2023-05-04T23:09:46.712Z,100735.44
2023-05-04T23:12:13.868Z,100737.31
2023-05-04T23:14:40.472Z,100745.38
2023-05-04T23:17:07.648Z,100757.97
2023-05-04T23:19:34.111Z,100754.13
2023-05-04T23:22:00.958Z,100750.59
2023-05-04T23:24:27.433Z,100754.91
2023-05-04T23:26:54.157Z,100759.50
2023-05-04T23:29:20.620Z,100760.69
2023-05-04T23:31:47.195Z,100770.19
2023-05-04T23:34:13.779Z,100771.44
2023-05-04T23:36:40.241Z,100786.31
2023-05-04T23:39:06.785Z,100793.69
2023-05-04T23:41:33.413Z,100789.16
2023-05-04T23:44:00.238Z,100809.84
2023-05-04T23:46:26.665Z,100833.81
2023-05-04T23:48:53.136Z,100840.41
2023-05-04T23:51:19.698Z,100864.25
2023-05-04T23:53:46.173Z,100869.72
2023-05-04T23:56:14.324Z,100858.75
2023-05-04T23:58:42.054Z,100854.00
